Time;durP1;ratioP1;P1;durP2;ratioP2;P2;SDS_P1;SDS_P2;PMS_P1;PMS_P2;Temp;Humidity;BMP_temperature;BMP_pressure;BME280_temperature;BME280_humidity;BME280_pressure;Samples;Min_cycle;Max_cycle;Signal;HPM_P1;HPM_P2
2022/10/23 00:01:46;;;;;;;11.48;9.30;;;;;;;12.19;100.00;100407.50;2989581;77;21903;-85
2022/10/23 00:05:47;;;;;;;11.60;8.20;;;;;;;12.05;100.00;100406.04;2968713;78;21474;-85
2022/10/23 00:09:48;;;;;;;12.63;8.95;;;;;;;12.07;100.00;100409.41;2969660;78;21065;-85
2022/10/23 00:13:53;;;;;;;9.70;7.80;;;;;;;12.12;100.00;100403.19;2987659;77;21557;-85
2022/10/23 00:17:54;;;;;;;10.47;8.73;;;;;;;12.17;100.00;100407.27;2992533;76;21585;-85
2022/10/23 00:21:55;;;;;;;13.50;7.90;;;;;;;12.18;100.00;100408.48;2950081;78;21054;-85
2022/10/23 00:25:57;;;;;;;12.70;8.20;;;;;;;12.12;100.00;100417.85;2929318;79;20998;-85
2022/10/23 00:29:58;;;;;;;14.75;9.53;;;;;;;12.12;100.00;100420.52;2989678;77;21497;-85
2022/10/23 00:33:59;;;;;;;13.18;9.15;;;;;;;12.22;100.00;100414.41;2998750;77;21180;-85
2022/10/23 00:38:00;;;;;;;9.03;7.15;;;;;;;12.32;100.00;100421.94;2980514;78;21053;-84
2022/10/23 00:42:01;;;;;;;9.75;7.12;;;;;;;12.39;100.00;100410.25;2930508;79;21602;-85
2022/10/23 00:46:03;;;;;;;11.08;6.55;;;;;;;12.44;100.00;100414.69;3008867;77;21052;-85
2022/10/23 00:50:05;;;;;;;9.60;6.05;;;;;;;12.50;100.00;100415.97;2972728;77;21009;-84
2022/10/23 00:54:08;;;;;;;6.47;5.80;;;;;;;12.53;100.00;100415.70;2991310;78;21001;-84
2022/10/23 00:58:09;;;;;;;5.55;5.05;;;;;;;12.56;100.00;100410.09;2962703;78;21007;-85
2022/10/23 01:02:10;;;;;;;6.62;4.70;;;;;;;12.56;100.00;100408.75;2948846;78;21064;-84
2022/10/23 01:06:42;;;;;;;7.05;4.53;;;;;;;12.59;100.00;100417.84;3006423;77;21072;-85
2022/10/23 01:10:47;;;;;;;9.93;5.25;;;;;;;12.53;100.00;100417.89;2948306;77;21668;-84
2022/10/23 01:15:06;;;;;;;6.47;5.53;;;;;;;12.52;100.00;100421.55;2988632;77;21091;-84
2022/10/23 01:19:19;;;;;;;6.80;3.83;;;;;;;12.49;100.00;100419.15;2979813;77;21003;-84
2022/10/23 01:23:45;;;;;;;4.50;4.10;;;;;;;12.43;100.00;100427.20;3027993;77;21512;-85
2022/10/23 01:27:50;;;;;;;;;;;;;;;12.36;100.00;100429.20;2996747;77;21343;-84
2022/10/23 01:32:14;;;;;;;5.55;4.40;;;;;;;12.32;100.00;100432.61;2994855;77;20153;-84
2022/10/23 01:36:19;;;;;;;7.90;4.00;;;;;;;12.28;100.00;100433.86;2940132;78;21087;-85
2022/10/23 01:40:34;;;;;;;6.60;3.37;;;;;;;12.31;100.00;100440.77;2938507;79;21073;-85
2022/10/23 01:44:49;;;;;;;5.17;3.50;;;;;;;12.30;100.00;100437.23;2981415;76;21057;-85
2022/10/23 01:48:55;;;;;;;4.15;3.20;;;;;;;12.30;100.00;100432.41;3003938;76;20996;-85
2022/10/23 01:52:57;;;;;;;4.47;3.37;;;;;;;12.28;100.00;100439.20;3028140;77;21013;-85
2022/10/23 01:56:59;;;;;;;3.85;2.85;;;;;;;12.28;100.00;100447.20;2986477;78;21844;-85
2022/10/23 02:01:04;;;;;;;4.80;2.98;;;;;;;12.25;100.00;100438.14;2885115;78;21168;-85
2022/10/23 02:05:20;;;;;;;6.47;4.43;;;;;;;12.25;100.00;100440.80;2988354;78;22308;-85
2022/10/23 02:09:21;;;;;;;3.95;3.02;;;;;;;12.27;100.00;100442.84;3010507;77;20996;-85
2022/10/23 02:14:14;;;;;;;4.85;4.35;;;;;;;12.31;100.00;100441.59;3001485;76;20987;-85
2022/10/23 02:18:39;;;;;;;7.25;3.90;;;;;;;12.33;100.00;100442.30;3003611;76;21580;-85
2022/10/23 02:22:45;;;;;;;10.15;5.30;;;;;;;12.36;100.00;100446.03;2897224;78;21570;-85
2022/10/23 02:27:00;;;;;;;7.90;4.90;;;;;;;12.37;100.00;100442.38;2922818;78;21102;-85
2022/10/23 02:31:03;;;;;;;7.40;4.75;;;;;;;12.35;100.00;100449.67;2960598;77;21544;-85
2022/10/23 02:35:05;;;;;;;7.83;4.72;;;;;;;12.39;100.00;100448.94;2990144;77;20984;-85
2022/10/23 02:39:06;;;;;;;7.30;5.37;;;;;;;12.43;100.00;100451.20;2971714;77;21051;-85
2022/10/23 02:43:16;;;;;;;7.85;4.55;;;;;;;12.45;100.00;100448.38;3034601;76;21023;-85
2022/10/23 02:47:40;;;;;;;6.00;4.75;;;;;;;12.49;100.00;100448.97;2981563;78;21170;-85
2022/10/23 02:52:13;;;;;;;5.67;4.78;;;;;;;12.46;100.00;100446.58;2984211;77;21676;-85
2022/10/23 02:56:31;;;;;;;8.85;6.20;;;;;;;12.39;100.00;100451.13;2959674;78;21051;-85
2022/10/23 03:00:37;;;;;;;4.90;3.90;;;;;;;12.39;100.00;100450.27;2995946;78;21475;-85
2022/10/23 03:04:41;;;;;;;5.47;4.97;;;;;;;12.40;100.00;100455.48;2925369;79;21026;-85
2022/10/23 03:08:50;;;;;;;5.40;4.87;;;;;;;12.37;100.00;100457.05;3006013;77;21097;-85
2022/10/23 03:12:51;;;;;;;6.60;5.85;;;;;;;12.30;100.00;100462.58;2936423;78;21105;-85
2022/10/23 03:16:52;;;;;;;8.78;5.67;;;;;;;12.20;100.00;100459.03;2948904;78;21026;-85
2022/10/23 03:20:53;;;;;;;6.05;5.45;;;;;;;12.14;100.00;100464.40;2977471;77;21045;-85
2022/10/23 03:24:54;;;;;;;7.55;5.92;;;;;;;12.12;100.00;100459.18;2977945;78;21039;-85
2022/10/23 03:28:56;;;;;;;6.85;5.05;;;;;;;12.13;100.00;100458.20;2985364;77;20987;-85
2022/10/23 03:32:57;;;;;;;7.78;5.05;;;;;;;12.16;100.00;100460.25;2997612;78;21542;-85
2022/10/23 03:36:58;;;;;;;6.42;4.58;;;;;;;12.16;100.00;100454.91;3042932;76;21042;-85
2022/10/23 03:40:59;;;;;;;8.63;5.60;;;;;;;12.17;100.00;100447.27;3000553;78;21044;-84
2022/10/23 03:45:00;;;;;;;7.17;4.50;;;;;;;12.17;100.00;100453.94;2941238;80;21071;-85
2022/10/23 03:49:02;;;;;;;8.78;5.10;;;;;;;12.20;100.00;100441.70;2966571;77;21043;-85
2022/10/23 03:53:03;;;;;;;6.90;4.90;;;;;;;12.23;100.00;100439.59;3020186;76;20975;-85
2022/10/23 03:57:04;;;;;;;7.05;5.33;;;;;;;12.24;100.00;100441.78;2982750;78;20977;-85
2022/10/23 04:01:06;;;;;;;5.72;5.22;;;;;;;12.30;100.00;100430.56;3004068;77;21140;-84
2022/10/23 04:05:07;;;;;;;6.58;5.60;;;;;;;12.36;100.00;100436.69;3000492;77;21087;-85
2022/10/23 04:09:08;;;;;;;5.80;5.10;;;;;;;12.39;100.00;100430.26;2975636;78;21189;-85
2022/10/23 04:13:10;;;;;;;6.37;5.37;;;;;;;12.36;100.00;100430.53;2905317;78;21105;-85
2022/10/23 04:17:11;;;;;;;5.90;4.55;;;;;;;12.36;100.00;100435.87;2976027;78;21628;-85
2022/10/23 04:21:12;;;;;;;5.72;5.20;;;;;;;12.38;100.00;100436.57;2997199;77;21526;-85
2022/10/23 04:25:15;;;;;;;5.40;4.90;;;;;;;12.40;100.00;100434.14;2969653;77;21065;-85
2022/10/23 04:29:16;;;;;;;7.72;4.90;;;;;;;12.31;100.00;100433.59;2991556;78;20995;-85
2022/10/23 04:33:18;;;;;;;5.25;4.17;;;;;;;12.30;100.00;100441.23;2989627;78;21042;-85
2022/10/23 04:37:19;;;;;;;7.45;5.47;;;;;;;12.33;100.00;100449.48;3043758;76;21019;-85
2022/10/23 04:41:20;;;;;;;13.50;5.30;;;;;;;12.36;100.00;100447.36;3026157;76;20981;-85
2022/10/23 04:45:21;;;;;;;6.45;5.53;;;;;;;12.31;100.00;100453.59;2913116;76;21034;-85
2022/10/23 04:49:23;;;;;;;8.48;4.67;;;;;;;12.23;100.00;100458.26;2983233;76;20990;-85
2022/10/23 04:53:25;;;;;;;6.97;4.70;;;;;;;12.19;100.00;100460.02;2990570;77;21616;-85
2022/10/23 04:57:26;;;;;;;4.87;4.33;;;;;;;12.18;100.00;100472.95;2986929;77;22211;-85
2022/10/23 05:01:27;;;;;;;7.65;4.85;;;;;;;12.21;100.00;100467.39;2997464;76;21058;-85
2022/10/23 05:05:28;;;;;;;5.62;4.67;;;;;;;12.19;100.00;100474.67;2890321;77;21026;-85
2022/10/23 05:09:29;;;;;;;6.53;5.45;;;;;;;12.11;100.00;100464.16;2998984;76;21020;-85
2022/10/23 05:13:30;;;;;;;5.12;4.62;;;;;;;12.16;100.00;100471.77;3038860;76;21009;-85
2022/10/23 05:17:38;;;;;;;5.87;5.15;;;;;;;12.21;100.00;100476.72;3006332;78;21124;-85
2022/10/23 05:21:40;;;;;;;6.75;4.53;;;;;;;12.26;100.00;100482.50;2997827;77;20999;-85
2022/10/23 05:25:41;;;;;;;7.90;5.72;;;;;;;12.31;100.00;100472.27;2977659;78;20998;-85
2022/10/23 05:29:42;;;;;;;5.90;5.28;;;;;;;12.31;100.00;100470.94;3008348;77;21540;-85
2022/10/23 05:33:44;;;;;;;6.90;5.00;;;;;;;12.30;100.00;100464.42;3011539;76;20995;-85
2022/10/23 05:37:48;;;;;;;9.78;4.95;;;;;;;12.23;100.00;100458.26;2928165;78;21947;-85
2022/10/23 05:41:50;;;;;;;7.42;4.78;;;;;;;12.20;100.00;100457.70;2985570;78;21508;-85
2022/10/23 05:45:51;;;;;;;7.85;4.75;;;;;;;12.16;100.00;100454.91;3002253;77;21511;-85
2022/10/23 05:49:52;;;;;;;5.80;5.00;;;;;;;12.11;100.00;100454.00;3005938;77;20991;-85
2022/10/23 05:53:54;;;;;;;5.78;4.53;;;;;;;12.17;100.00;100461.94;2971841;78;21022;-85
2022/10/23 05:57:56;;;;;;;7.25;4.30;;;;;;;12.25;100.00;100461.63;2978976;78;21590;-85
2022/10/23 06:01:57;;;;;;;6.90;5.15;;;;;;;12.23;100.00;100461.43;2978715;78;20991;-85
2022/10/23 06:05:58;;;;;;;5.80;4.55;;;;;;;12.19;100.00;100462.67;2981589;77;20987;-85
2022/10/23 06:09:59;;;;;;;5.92;4.90;;;;;;;12.16;100.00;100461.11;2979658;78;21043;-85
2022/10/23 06:14:00;;;;;;;4.97;4.42;;;;;;;12.16;100.00;100465.11;3013170;78;21085;-85
2022/10/23 06:18:04;;;;;;;5.58;4.45;;;;;;;12.22;100.00;100461.91;2995959;78;21057;-85
2022/10/23 06:22:05;;;;;;;7.67;5.75;;;;;;;12.34;100.00;100466.66;2974144;78;21007;-85
2022/10/23 06:26:09;;;;;;;7.22;5.25;;;;;;;12.54;100.00;100484.09;3016219;77;21015;-85
2022/10/23 06:30:12;;;;;;;6.00;4.62;;;;;;;12.71;100.00;100479.45;2982975;77;21594;-85
2022/10/23 06:34:14;;;;;;;6.10;4.35;;;;;;;12.76;100.00;100493.74;2961856;78;21601;-85
2022/10/23 06:38:15;;;;;;;7.35;4.17;;;;;;;12.80;100.00;100491.66;2989703;78;21472;-85
2022/10/23 06:42:16;;;;;;;6.17;4.45;;;;;;;12.88;100.00;100489.14;2993033;77;21581;-85
2022/10/23 06:46:18;;;;;;;5.30;4.45;;;;;;;12.98;100.00;100486.02;2999894;77;20999;-85
2022/10/23 06:50:19;;;;;;;6.10;5.47;;;;;;;13.07;100.00;100488.36;2995682;78;21045;-85
2022/10/23 06:54:20;;;;;;;6.50;4.97;;;;;;;13.14;100.00;100489.97;2985723;78;21073;-85
2022/10/23 06:58:21;;;;;;;6.65;5.67;;;;;;;13.28;100.00;100489.58;3004105;78;21074;-85
2022/10/23 07:02:22;;;;;;;7.12;4.53;;;;;;;13.43;100.00;100476.67;2994215;77;21025;-85
2022/10/23 07:06:23;;;;;;;6.05;4.33;;;;;;;13.65;100.00;100478.72;2909140;80;21110;-85
2022/10/23 07:10:25;;;;;;;5.17;4.15;;;;;;;13.92;100.00;100481.66;3000524;77;21054;-86
2022/10/23 07:14:26;;;;;;;5.15;4.15;;;;;;;14.19;100.00;100490.77;2988789;77;20963;-85
2022/10/23 07:18:27;;;;;;;4.85;3.72;;;;;;;14.40;100.00;100496.77;2993883;77;21025;-85
2022/10/23 07:31:53;;;;;;;5.70;4.33;;;;;;;15.08;100.00;100504.18;3016455;77;21097;-85
2022/10/23 07:35:54;;;;;;;5.00;4.00;;;;;;;15.23;100.00;100497.80;2959124;78;21691;-85
2022/10/23 07:39:55;;;;;;;9.00;6.17;;;;;;;15.28;100.00;100497.36;3009144;77;21572;-85
2022/10/23 07:43:56;;;;;;;6.42;4.50;;;;;;;15.33;100.00;100494.20;3012441;77;21399;-85
2022/10/23 07:47:57;;;;;;;5.10;4.08;;;;;;;15.32;100.00;100497.39;3008818;77;21004;-85
2022/10/23 07:51:58;;;;;;;4.72;4.25;;;;;;;15.35;100.00;100501.62;3032194;76;21047;-86
2022/10/23 07:56:04;;;;;;;8.10;4.35;;;;;;;15.48;100.00;100499.38;2931117;77;20995;-85
2022/10/23 08:00:06;;;;;;;4.20;3.77;;;;;;;15.67;100.00;100499.74;3010733;77;21532;-85
2022/10/23 08:04:09;;;;;;;4.92;4.47;;;;;;;15.87;100.00;100505.42;2965122;78;21476;-85
2022/10/23 08:08:10;;;;;;;6.08;3.80;;;;;;;16.05;100.00;100500.90;2940974;79;21025;-85
2022/10/23 08:12:11;;;;;;;4.95;3.50;;;;;;;16.29;100.00;100508.77;2988992;77;21029;-86
2022/10/23 08:16:12;;;;;;;4.97;3.87;;;;;;;16.52;100.00;100505.58;2906113;78;21592;-85
2022/10/23 08:20:14;;;;;;;4.58;3.67;;;;;;;16.64;100.00;100496.22;2972181;77;20990;-85
2022/10/23 08:24:15;;;;;;;4.90;4.10;;;;;;;16.71;100.00;100495.08;2991424;78;20987;-85
2022/10/23 08:28:16;;;;;;;7.15;4.30;;;;;;;16.76;100.00;100494.09;2910631;80;21026;-84
2022/10/23 08:32:17;;;;;;;7.78;4.00;;;;;;;16.85;100.00;100495.82;3022585;76;20980;-85
2022/10/23 08:36:27;;;;;;;8.38;2.92;;;;;;;17.01;100.00;100494.72;3027326;76;21043;-86
2022/10/23 08:40:28;;;;;;;3.83;2.70;;;;;;;17.15;100.00;100487.38;3004517;77;21026;-85
2022/10/23 08:45:00;;;;;;;5.22;2.95;;;;;;;17.33;100.00;100495.30;2977701;78;21011;-85
2022/10/23 08:49:25;;;;;;;3.45;2.75;;;;;;;17.45;100.00;100497.69;2990471;77;21070;-86
2022/10/23 08:53:37;;;;;;;3.42;3.12;;;;;;;17.57;100.00;100496.34;2922144;79;21042;-86
2022/10/23 08:57:49;;;;;;;4.85;3.17;;;;;;;17.74;100.00;100487.80;2918907;78;21165;-86
2022/10/23 09:02:24;;;;;;;3.10;2.60;;;;;;;17.88;100.00;100494.83;2975188;78;21047;-85
2022/10/23 09:06:45;;;;;;;5.70;4.10;;;;;;;18.03;100.00;100501.25;2981193;77;21507;-85
2022/10/23 09:11:04;;;;;;;2.98;2.67;;;;;;;18.29;100.00;100495.33;2991771;78;21817;-85
2022/10/23 09:15:30;;;;;;;4.40;2.80;;;;;;;18.39;99.55;100503.55;2942366;78;21069;-85
2022/10/23 09:19:32;;;;;;;;;;;;;;;18.48;99.66;100503.55;2978769;77;21074;-85
2022/10/23 09:23:33;;;;;;;5.12;2.67;;;;;;;18.47;97.70;100498.66;2977372;78;20132;-85
2022/10/23 09:27:34;;;;;;;3.58;3.25;;;;;;;18.54;99.29;100494.77;2933390;79;21003;-85
2022/10/23 09:31:51;;;;;;;5.03;2.55;;;;;;;18.60;98.76;100495.41;2957486;78;21025;-85
2022/10/23 09:36:03;;;;;;;4.00;3.10;;;;;;;18.66;96.09;100496.58;2921674;80;21011;-85
2022/10/23 09:40:32;;;;;;;4.03;3.12;;;;;;;18.75;97.08;100495.52;2981808;76;21018;-85
2022/10/23 09:44:34;;;;;;;3.35;2.90;;;;;;;18.75;94.88;100494.69;2988013;76;20995;-86
2022/10/23 09:48:35;;;;;;;2.72;1.85;;;;;;;18.81;95.60;100492.63;3008924;77;21023;-85
2022/10/23 09:52:38;;;;;;;3.42;2.37;;;;;;;18.92;94.78;100500.34;3016647;76;20929;-85
2022/10/23 09:56:40;;;;;;;4.55;3.22;;;;;;;19.05;95.09;100500.30;2995135;78;21034;-85
2022/10/23 10:00:46;;;;;;;3.60;2.58;;;;;;;19.11;93.35;100500.95;3005534;77;21145;-86
2022/10/23 10:04:47;;;;;;;2.72;2.47;;;;;;;19.09;90.97;100494.91;3003575;77;21082;-85
2022/10/23 10:08:53;;;;;;;4.22;2.75;;;;;;;19.07;92.09;100491.55;3013790;78;21130;-85
2022/10/23 10:12:58;;;;;;;3.35;3.05;;;;;;;18.95;91.76;100485.66;2958917;78;21019;-85
2022/10/23 10:17:13;;;;;;;3.85;2.92;;;;;;;18.82;92.29;100476.80;3030445;76;21002;-85
2022/10/23 10:21:26;;;;;;;4.58;3.90;;;;;;;18.79;92.49;100478.50;3005545;77;21048;-85
2022/10/23 10:25:35;;;;;;;7.78;3.45;;;;;;;18.69;93.18;100479.56;2979524;78;21388;-85
2022/10/23 10:30:02;;;;;;;4.10;3.80;;;;;;;18.62;92.05;100473.17;3010505;76;21009;-85
2022/10/23 10:34:30;;;;;;;5.55;3.85;;;;;;;18.55;94.64;100481.11;3046003;76;21018;-85
2022/10/23 10:38:39;;;;;;;5.55;3.47;;;;;;;18.64;93.74;100473.84;3015606;77;21038;-86
2022/10/23 10:43:09;;;;;;;4.25;3.33;;;;;;;18.74;93.17;100469.59;2975370;76;21341;-85
2022/10/23 10:47:15;;;;;;;4.90;2.75;;;;;;;18.68;93.04;100460.87;2990469;76;21582;-85
2022/10/23 10:51:25;;;;;;;6.08;2.67;;;;;;;18.61;90.80;100457.20;2983143;77;21167;-86
2022/10/23 10:55:43;;;;;;;4.47;3.45;;;;;;;18.68;91.77;100453.64;2998178;77;21023;-86
2022/10/23 10:59:47;;;;;;;2.58;2.10;;;;;;;18.62;91.58;100444.06;2983020;78;21008;-86
2022/10/23 11:04:14;;;;;;;2.97;2.37;;;;;;;18.52;92.28;100440.23;2984003;77;20997;-85
2022/10/23 11:08:26;;;;;;;;;;;;;;;18.54;93.65;100443.06;2970402;77;21013;-85
2022/10/23 11:12:28;;;;;;;3.22;2.37;;;;;;;18.70;94.37;100444.88;3017044;76;20072;-85
2022/10/23 11:16:36;;;;;;;4.62;3.37;;;;;;;18.74;92.46;100444.52;2886901;80;21562;-86
2022/10/23 11:21:15;;;;;;;7.62;4.78;;;;;;;18.66;92.64;100444.86;3012294;77;21014;-86
2022/10/23 11:26:01;;;;;;;6.25;3.40;;;;;;;18.60;92.54;100437.49;2988007;76;21042;-85
2022/10/23 11:30:30;;;;;;;5.70;4.83;;;;;;;18.60;91.94;100428.59;3029048;76;21030;-85
2022/10/23 11:34:49;;;;;;;5.25;3.62;;;;;;;18.53;93.79;100412.28;3033584;77;21041;-85
2022/10/23 11:38:57;;;;;;;6.37;3.75;;;;;;;18.49;93.98;100417.17;2994686;77;21537;-85
2022/10/23 11:42:54;;;;;;;7.53;4.30;;;;;;;18.50;94.75;100408.59;3036911;76;20998;-85
2022/10/23 11:47:02;;;;;;;5.30;4.70;;;;;;;18.50;95.19;100399.17;3029691;76;21079;-85
2022/10/23 11:51:05;;;;;;;7.75;5.10;;;;;;;18.56;94.14;100390.38;2982242;77;20986;-85
2022/10/23 11:55:23;;;;;;;7.08;4.33;;;;;;;18.58;95.71;100381.61;2997978;77;21414;-85
2022/10/23 11:59:32;;;;;;;8.55;5.55;;;;;;;18.70;97.25;100376.17;3003393;77;21038;-86
2022/10/23 12:03:53;;;;;;;7.92;6.08;;;;;;;18.73;95.32;100361.48;3016958;76;21005;-85
2022/10/23 12:07:59;;;;;;;8.05;5.50;;;;;;;18.79;94.50;100356.75;2946205;78;21673;-85
2022/10/23 12:12:11;;;;;;;7.65;5.15;;;;;;;18.83;94.13;100345.08;2997384;77;21006;-85
2022/10/23 12:16:13;;;;;;;4.83;3.90;;;;;;;18.86;94.55;100331.25;3007507;77;21036;-85
2022/10/23 12:20:25;;;;;;;7.33;4.60;;;;;;;18.91;93.87;100326.18;3021551;76;21081;-86
2022/10/23 12:25:07;;;;;;;8.30;6.37;;;;;;;19.00;93.41;100327.48;3012293;76;21842;-86
2022/10/23 12:29:39;;;;;;;6.67;5.05;;;;;;;19.12;90.82;100321.48;2971352;78;21511;-87
2022/10/23 12:33:52;;;;;;;24.23;17.73;;;;;;;19.13;88.93;100325.03;2985891;77;21124;-86
2022/10/23 12:38:17;;;;;;;30.48;23.02;;;;;;;19.06;90.72;100320.87;2970398;78;21058;-86
2022/10/23 12:42:25;;;;;;;11.00;7.77;;;;;;;19.01;88.07;100314.34;2991336;77;21022;-87
2022/10/23 12:46:40;;;;;;;7.03;6.33;;;;;;;19.03;92.81;100320.38;3020351;78;21663;-86
2022/10/23 12:50:53;;;;;;;120.27;77.60;;;;;;;19.10;92.00;100310.57;2973247;78;21019;-85
2022/10/23 12:54:54;;;;;;;26.97;15.30;;;;;;;19.10;89.03;100298.44;3031691;78;21037;-87
2022/10/23 12:59:02;;;;;;;132.47;84.85;;;;;;;18.98;90.35;100293.47;2951854;78;21289;-87
2022/10/23 13:03:03;;;;;;;71.82;46.23;;;;;;;19.00;88.19;100283.02;2989948;77;21061;-87
2022/10/23 13:07:04;;;;;;;38.78;26.93;;;;;;;18.94;89.62;100274.61;2937585;78;21034;-87
2022/10/23 13:11:08;;;;;;;12.45;8.13;;;;;;;18.95;90.09;100278.13;3029088;77;21006;-87
2022/10/23 13:15:18;;;;;;;11.35;6.15;;;;;;;18.90;88.91;100275.14;2989119;78;21020;-86
2022/10/23 13:19:24;;;;;;;10.45;7.30;;;;;;;18.87;89.92;100275.02;3003336;78;21042;-87
2022/10/23 13:23:30;;;;;;;8.58;5.35;;;;;;;18.96;91.76;100268.52;2984706;78;21028;-86
2022/10/23 13:27:33;;;;;;;20.10;13.22;;;;;;;18.93;91.32;100267.55;2979289;78;21042;-86
2022/10/23 13:31:35;;;;;;;11.38;7.42;;;;;;;18.81;91.70;100264.94;2998093;78;21573;-85
2022/10/23 13:35:36;;;;;;;7.87;5.75;;;;;;;18.74;90.08;100262.12;2953097;78;21513;-86
2022/10/23 13:39:37;;;;;;;9.35;5.47;;;;;;;18.72;90.43;100270.08;3001829;77;21557;-86
2022/10/23 13:43:39;;;;;;;9.78;4.78;;;;;;;18.69;90.53;100269.91;3006328;76;20998;-86
2022/10/23 13:47:40;;;;;;;5.58;4.78;;;;;;;18.64;90.38;100270.97;3014128;77;21017;-86
2022/10/23 13:51:47;;;;;;;8.83;5.30;;;;;;;18.59;90.72;100268.80;3002852;77;21030;-86
2022/10/23 13:55:51;;;;;;;8.38;5.37;;;;;;;18.59;91.50;100258.03;3001479;77;20985;-86
2022/10/23 13:59:52;;;;;;;7.85;5.92;;;;;;;18.56;91.44;100259.73;2994927;77;20997;-86
2022/10/23 14:03:56;;;;;;;9.28;5.03;;;;;;;18.54;92.98;100257.73;2969808;77;20994;-85
2022/10/23 14:07:57;;;;;;;8.68;7.08;;;;;;;18.58;93.73;100254.19;2946233;78;21082;-86
2022/10/23 14:11:58;;;;;;;12.00;7.08;;;;;;;18.65;94.36;100259.99;2952023;78;21035;-86
2022/10/23 14:15:59;;;;;;;12.20;7.87;;;;;;;18.71;93.27;100259.80;3032309;76;21018;-86
2022/10/23 14:20:01;;;;;;;10.45;6.70;;;;;;;18.70;93.33;100252.23;3018309;77;20963;-86
2022/10/23 14:24:03;;;;;;;9.60;7.12;;;;;;;18.75;92.93;100239.55;3013440;77;21015;-85
2022/10/23 14:28:04;;;;;;;9.33;6.08;;;;;;;18.74;93.30;100239.74;3012593;77;21005;-85
2022/10/23 14:32:05;;;;;;;7.83;5.97;;;;;;;18.69;93.80;100237.58;3012288;78;21011;-86
2022/10/23 14:36:07;;;;;;;7.03;5.42;;;;;;;18.61;94.39;100234.44;2994915;78;21374;-86
2022/10/23 14:40:09;;;;;;;7.75;5.33;;;;;;;18.52;95.48;100223.41;3008462;77;21047;-85
2022/10/23 14:44:10;;;;;;;7.90;6.10;;;;;;;18.48;94.56;100225.62;3018236;77;21023;-86
2022/10/23 14:48:11;;;;;;;6.20;5.05;;;;;;;18.44;94.91;100221.61;2995408;77;21015;-86
2022/10/23 14:52:12;;;;;;;8.35;5.00;;;;;;;18.44;95.08;100226.15;3003566;77;20993;-86
2022/10/23 14:56:14;;;;;;;6.90;5.37;;;;;;;18.41;95.08;100229.53;3015147;76;20990;-86
2022/10/23 15:00:15;;;;;;;5.42;4.62;;;;;;;18.30;95.60;100223.23;2934744;78;21406;-86
2022/10/23 15:04:17;;;;;;;7.08;4.45;;;;;;;18.20;95.32;100219.91;2925674;78;20980;-86
2022/10/23 15:08:19;;;;;;;12.93;6.25;;;;;;;18.01;97.10;100222.00;3011554;77;21025;-86
2022/10/23 15:12:21;;;;;;;5.47;4.40;;;;;;;17.88;97.73;100213.66;3012041;78;20980;-86
2022/10/23 15:16:22;;;;;;;9.98;5.17;;;;;;;17.68;99.22;100207.35;3010689;77;21027;-86
2022/10/23 15:20:23;;;;;;;6.37;5.65;;;;;;;17.52;99.73;100207.77;2988158;77;21038;-85
2022/10/23 15:24:25;;;;;;;11.75;4.72;;;;;;;17.44;100.00;100209.13;3011110;76;21040;-86
2022/10/23 15:28:29;;;;;;;9.98;6.30;;;;;;;17.34;100.00;100209.84;2984734;77;21046;-86
2022/10/23 15:32:30;;;;;;;7.72;5.35;;;;;;;17.18;100.00;100216.07;2986180;77;20987;-87
2022/10/23 15:36:31;;;;;;;11.83;6.45;;;;;;;17.03;100.00;100214.10;2899166;77;21026;-85
2022/10/23 15:40:46;;;;;;;11.08;5.97;;;;;;;16.88;100.00;100220.61;3007758;77;21050;-85
2022/10/23 15:44:49;;;;;;;10.45;6.12;;;;;;;16.75;100.00;100225.67;2975335;77;21006;-86
2022/10/23 15:48:50;;;;;;;8.08;6.25;;;;;;;16.64;100.00;100233.04;2969783;77;21018;-86
2022/10/23 15:52:52;;;;;;;7.95;6.45;;;;;;;16.56;100.00;100239.76;2994627;77;21036;-86
2022/10/23 15:56:53;;;;;;;13.98;8.73;;;;;;;16.45;100.00;100237.38;2984211;77;21006;-87
2022/10/23 16:00:54;;;;;;;15.20;9.03;;;;;;;16.31;100.00;100231.67;2996550;77;21043;-86
2022/10/23 16:04:55;;;;;;;14.28;10.03;;;;;;;16.22;100.00;100224.11;2982582;77;21003;-86
2022/10/23 16:08:56;;;;;;;15.72;10.80;;;;;;;16.19;100.00;100227.61;3007665;77;21299;-86
2022/10/23 16:12:58;;;;;;;9.80;6.67;;;;;;;16.10;100.00;100225.41;2957273;78;21038;-86
2022/10/23 16:16:59;;;;;;;14.43;6.40;;;;;;;15.88;100.00;100233.03;2925329;77;20987;-87
2022/10/23 16:21:00;;;;;;;8.35;4.97;;;;;;;15.71;100.00;100226.25;2968579;77;21075;-86
2022/10/23 16:25:01;;;;;;;9.95;5.42;;;;;;;15.62;100.00;100223.70;3019501;78;21022;-87
2022/10/23 16:29:06;;;;;;;7.62;4.75;;;;;;;15.50;100.00;100213.23;2944092;78;21062;-87
2022/10/23 16:33:10;;;;;;;9.80;6.05;;;;;;;15.34;100.00;100210.50;3003075;77;20999;-86
2022/10/23 16:37:11;;;;;;;16.35;13.88;;;;;;;15.24;100.00;100204.73;3001562;78;21061;-87
2022/10/23 16:41:13;;;;;;;17.40;15.75;;;;;;;15.15;100.00;100209.71;2952291;78;21053;-86
2022/10/23 16:45:15;;;;;;;9.80;6.97;;;;;;;15.03;100.00;100205.61;2995531;77;29681;-86
2022/10/23 16:49:16;;;;;;;9.53;7.92;;;;;;;14.92;100.00;100206.19;2980012;77;20998;-85
2022/10/23 16:53:17;;;;;;;12.55;8.55;;;;;;;14.95;100.00;100203.22;2995550;77;20974;-88
2022/10/23 16:57:19;;;;;;;17.25;12.75;;;;;;;14.89;100.00;100202.48;3005380;78;21030;-87
2022/10/23 17:01:25;;;;;;;24.75;11.22;;;;;;;14.96;100.00;100199.55;3009353;78;20984;-86
2022/10/23 17:05:27;;;;;;;18.90;12.85;;;;;;;14.93;100.00;100195.81;2992908;77;21077;-85
2022/10/23 17:09:30;;;;;;;27.07;18.35;;;;;;;14.87;100.00;100196.45;2969197;77;21007;-86
2022/10/23 17:13:31;;;;;;;24.30;15.70;;;;;;;14.83;100.00;100197.25;2995465;77;21154;-86
2022/10/23 17:17:33;;;;;;;16.20;11.95;;;;;;;14.81;100.00;100209.13;2989194;77;21621;-87
2022/10/23 17:21:38;;;;;;;13.65;9.65;;;;;;;14.79;100.00;100211.13;2998725;77;21004;-87
2022/10/23 17:25:39;;;;;;;16.30;11.48;;;;;;;14.73;100.00;100224.63;2928277;77;21046;-86
2022/10/23 17:29:40;;;;;;;13.68;10.75;;;;;;;14.67;100.00;100226.05;2966191;77;21121;-86
2022/10/23 17:33:43;;;;;;;12.78;9.80;;;;;;;14.65;100.00;100205.29;3005907;77;21065;-87
2022/10/23 17:37:44;;;;;;;14.00;10.43;;;;;;;14.63;100.00;100195.72;2993191;77;20974;-86
2022/10/23 17:41:46;;;;;;;13.88;10.28;;;;;;;14.60;100.00;100184.84;2991629;77;21058;-87
2022/10/23 17:45:47;;;;;;;17.32;10.10;;;;;;;14.59;100.00;100175.61;3011324;77;20970;-86
2022/10/23 17:49:48;;;;;;;13.08;9.60;;;;;;;14.60;100.00;100177.30;2986530;77;21086;-86
2022/10/23 17:53:53;;;;;;;14.40;9.93;;;;;;;14.62;100.00;100180.17;3016357;77;21614;-87
2022/10/23 17:57:54;;;;;;;11.45;9.85;;;;;;;14.65;100.00;100180.38;3003323;77;20965;-86
2022/10/23 18:01:58;;;;;;;17.02;13.22;;;;;;;14.67;100.00;100177.86;3015219;77;20960;-86
2022/10/23 18:06:18;;;;;;;30.72;26.35;;;;;;;14.64;100.00;100173.31;3004941;78;21066;-86
2022/10/23 18:10:20;;;;;;;22.35;14.07;;;;;;;14.57;100.00;100173.11;2922090;78;20976;-86
2022/10/23 18:14:21;;;;;;;15.25;12.15;;;;;;;14.50;100.00;100158.16;2971733;77;20984;-86
2022/10/23 18:18:24;;;;;;;14.10;10.25;;;;;;;14.49;100.00;100155.14;2990490;77;21078;-86
2022/10/23 18:22:25;;;;;;;13.32;9.60;;;;;;;14.47;100.00;100150.94;2997315;77;21062;-86
2022/10/23 18:26:29;;;;;;;12.68;9.45;;;;;;;14.46;100.00;100155.46;3017345;78;21082;-86
2022/10/23 18:30:30;;;;;;;14.43;10.48;;;;;;;14.37;100.00;100153.21;2970068;78;21058;-86
2022/10/23 18:34:31;;;;;;;21.15;11.33;;;;;;;14.38;100.00;100143.33;2955119;78;21043;-86
2022/10/23 18:38:36;;;;;;;14.80;12.78;;;;;;;14.37;100.00;100135.81;2984387;77;21053;-85
2022/10/23 18:42:37;;;;;;;22.58;12.23;;;;;;;14.42;100.00;100129.50;3006706;78;21019;-86
2022/10/23 18:46:38;;;;;;;15.53;11.00;;;;;;;14.48;100.00;100125.37;3020095;78;20975;-85
2022/10/23 18:50:39;;;;;;;17.62;12.10;;;;;;;14.52;100.00;100139.26;2903130;79;21039;-86
2022/10/23 18:54:41;;;;;;;15.48;9.88;;;;;;;14.55;100.00;100142.98;2910490;78;21003;-86
2022/10/23 18:58:42;;;;;;;15.10;11.35;;;;;;;14.55;100.00;100130.95;2997735;77;21041;-85